Terminal Aerodrome Forecast
Issued by NWS Wilmington, NC

Home | Current Version | Previous Version | Text Only | Print | Product List | Glossary On
Versions: 1 2 3 4 5 6 7 8 9 10 11 12 13 14 15 16 17 18 19 20 21 22 23 24 25 26 27 28 29 30 31 32 33 34
000
FTUS42 KILM 262300
TAFFLO
TAF
KFLO 262332Z 2700/2724 01006KT P6SM BKN018 OVC025
     FM270300 34006KT P6SM SCT020 BKN250
      TEMPO 2706/2709 4SM BR SCT002
     FM271300 03007KT P6SM SCT250
     FM271700 04009KT P6SM SCT040=

USA.gov is the U.S. government's official web portal to all federal, state and local government web resources and services.